sensor_id;sensor_type;location;lat;lon;timestamp;P1;durP1;ratioP1;P2;durP2;ratioP2
72635;SDS011;60679;48.888;15.544;2022-11-04T00:01:32;3.65;;;1.77;;
72635;SDS011;60679;48.888;15.544;2022-11-04T00:03:58;8.80;;;1.83;;
72635;SDS011;60679;48.888;15.544;2022-11-04T00:06:24;6.45;;;2.47;;
72635;SDS011;60679;48.888;15.544;2022-11-04T00:08:53;5.25;;;1.88;;
72635;SDS011;60679;48.888;15.544;2022-11-04T00:11:20;3.93;;;1.77;;
72635;SDS011;60679;48.888;15.544;2022-11-04T00:14:05;4.88;;;2.80;;
72635;SDS011;60679;48.888;15.544;2022-11-04T00:16:32;7.65;;;2.67;;
72635;SDS011;60679;48.888;15.544;2022-11-04T00:19:16;3.88;;;2.05;;
72635;SDS011;60679;48.888;15.544;2022-11-04T00:21:42;4.13;;;1.87;;
72635;SDS011;60679;48.888;15.544;2022-11-04T00:24:27;3.87;;;1.03;;
72635;SDS011;60679;48.888;15.544;2022-11-04T00:27:12;3.40;;;1.00;;
72635;SDS011;60679;48.888;15.544;2022-11-04T00:29:57;3.83;;;1.73;;
72635;SDS011;60679;48.888;15.544;2022-11-04T00:32:23;3.30;;;1.35;;
72635;SDS011;60679;48.888;15.544;2022-11-04T00:35:09;3.10;;;1.55;;
72635;SDS011;60679;48.888;15.544;2022-11-04T00:37:36;3.10;;;0.80;;
72635;SDS011;60679;48.888;15.544;2022-11-04T00:40:03;5.18;;;2.33;;
72635;SDS011;60679;48.888;15.544;2022-11-04T00:42:28;5.00;;;2.80;;
72635;SDS011;60679;48.888;15.544;2022-11-04T00:44:54;3.83;;;1.50;;
72635;SDS011;60679;48.888;15.544;2022-11-04T00:47:19;6.13;;;1.57;;
72635;SDS011;60679;48.888;15.544;2022-11-04T00:49:45;2.93;;;1.07;;
72635;SDS011;60679;48.888;15.544;2022-11-04T00:52:10;9.18;;;2.97;;
72635;SDS011;60679;48.888;15.544;2022-11-04T00:54:35;5.63;;;2.93;;
72635;SDS011;60679;48.888;15.544;2022-11-04T00:57:01;3.53;;;1.27;;
72635;SDS011;60679;48.888;15.544;2022-11-04T00:59:26;4.03;;;1.30;;
72635;SDS011;60679;48.888;15.544;2022-11-04T01:01:51;5.13;;;2.53;;
72635;SDS011;60679;48.888;15.544;2022-11-04T01:04:17;3.47;;;1.57;;
72635;SDS011;60679;48.888;15.544;2022-11-04T01:06:42;4.60;;;1.88;;
72635;SDS011;60679;48.888;15.544;2022-11-04T01:09:09;4.43;;;1.43;;
72635;SDS011;60679;48.888;15.544;2022-11-04T01:11:35;5.18;;;2.08;;
72635;SDS011;60679;48.888;15.544;2022-11-04T01:14:01;4.55;;;1.90;;
72635;SDS011;60679;48.888;15.544;2022-11-04T01:16:26;6.27;;;1.80;;
72635;SDS011;60679;48.888;15.544;2022-11-04T01:18:52;5.53;;;1.98;;
72635;SDS011;60679;48.888;15.544;2022-11-04T01:21:18;4.73;;;2.27;;
72635;SDS011;60679;48.888;15.544;2022-11-04T01:23:44;5.47;;;3.22;;
72635;SDS011;60679;48.888;15.544;2022-11-04T01:26:13;4.47;;;2.10;;
72635;SDS011;60679;48.888;15.544;2022-11-04T01:28:41;8.07;;;2.63;;
72635;SDS011;60679;48.888;15.544;2022-11-04T01:33:33;8.80;;;2.33;;
72635;SDS011;60679;48.888;15.544;2022-11-04T01:35:59;6.63;;;2.30;;
72635;SDS011;60679;48.888;15.544;2022-11-04T01:38:25;5.47;;;2.50;;
72635;SDS011;60679;48.888;15.544;2022-11-04T01:40:50;4.57;;;2.13;;
72635;SDS011;60679;48.888;15.544;2022-11-04T01:43:17;7.18;;;3.30;;
72635;SDS011;60679;48.888;15.544;2022-11-04T01:45:49;5.63;;;2.73;;
72635;SDS011;60679;48.888;15.544;2022-11-04T01:48:20;3.88;;;1.95;;
72635;SDS011;60679;48.888;15.544;2022-11-04T01:50:49;5.07;;;2.55;;
72635;SDS011;60679;48.888;15.544;2022-11-04T01:53:19;2.85;;;1.08;;
72635;SDS011;60679;48.888;15.544;2022-11-04T01:55:54;5.07;;;2.17;;
72635;SDS011;60679;48.888;15.544;2022-11-04T01:58:22;7.50;;;3.70;;
72635;SDS011;60679;48.888;15.544;2022-11-04T02:00:55;8.55;;;2.88;;
72635;SDS011;60679;48.888;15.544;2022-11-04T02:03:22;8.80;;;2.17;;
72635;SDS011;60679;48.888;15.544;2022-11-04T02:05:58;6.50;;;2.50;;
72635;SDS011;60679;48.888;15.544;2022-11-04T02:08:24;4.28;;;1.95;;
72635;SDS011;60679;48.888;15.544;2022-11-04T02:10:54;4.00;;;1.63;;
72635;SDS011;60679;48.888;15.544;2022-11-04T02:13:23;5.53;;;2.55;;
72635;SDS011;60679;48.888;15.544;2022-11-04T02:15:52;8.77;;;4.50;;
72635;SDS011;60679;48.888;15.544;2022-11-04T02:26:18;6.28;;;2.78;;
72635;SDS011;60679;48.888;15.544;2022-11-04T02:37:19;3.55;;;1.77;;
72635;SDS011;60679;48.888;15.544;2022-11-04T02:43:01;7.67;;;2.07;;
72635;SDS011;60679;48.888;15.544;2022-11-04T02:45:39;5.60;;;2.58;;
72635;SDS011;60679;48.888;15.544;2022-11-04T02:50:48;6.03;;;1.65;;
72635;SDS011;60679;48.888;15.544;2022-11-04T02:53:29;4.75;;;1.98;;
72635;SDS011;60679;48.888;15.544;2022-11-04T02:56:01;5.47;;;2.23;;
72635;SDS011;60679;48.888;15.544;2022-11-04T02:58:31;5.50;;;2.47;;
72635;SDS011;60679;48.888;15.544;2022-11-04T03:01:01;6.03;;;2.80;;
72635;SDS011;60679;48.888;15.544;2022-11-04T03:03:39;6.28;;;3.67;;
72635;SDS011;60679;48.888;15.544;2022-11-04T03:06:10;5.40;;;2.17;;
72635;SDS011;60679;48.888;15.544;2022-11-04T03:08:40;5.47;;;2.67;;
72635;SDS011;60679;48.888;15.544;2022-11-04T03:11:12;5.55;;;2.17;;
72635;SDS011;60679;48.888;15.544;2022-11-04T03:13:45;5.05;;;2.45;;
72635;SDS011;60679;48.888;15.544;2022-11-04T03:16:57;6.53;;;2.20;;
72635;SDS011;60679;48.888;15.544;2022-11-04T03:22:12;5.43;;;2.60;;
72635;SDS011;60679;48.888;15.544;2022-11-04T03:24:41;4.20;;;2.03;;
72635;SDS011;60679;48.888;15.544;2022-11-04T03:29:58;3.92;;;1.85;;
72635;SDS011;60679;48.888;15.544;2022-11-04T03:35:02;6.33;;;2.43;;
72635;SDS011;60679;48.888;15.544;2022-11-04T03:37:29;4.63;;;2.58;;
72635;SDS011;60679;48.888;15.544;2022-11-04T03:39:54;3.97;;;1.97;;
72635;SDS011;60679;48.888;15.544;2022-11-04T03:42:20;3.47;;;1.50;;
72635;SDS011;60679;48.888;15.544;2022-11-04T03:44:56;7.53;;;3.22;;
72635;SDS011;60679;48.888;15.544;2022-11-04T03:47:22;5.95;;;2.38;;
72635;SDS011;60679;48.888;15.544;2022-11-04T03:49:50;3.80;;;1.93;;
72635;SDS011;60679;48.888;15.544;2022-11-04T03:52:19;4.55;;;2.60;;
72635;SDS011;60679;48.888;15.544;2022-11-04T03:54:45;5.63;;;1.70;;
72635;SDS011;60679;48.888;15.544;2022-11-04T04:00:05;5.15;;;2.88;;
72635;SDS011;60679;48.888;15.544;2022-11-04T04:05:11;6.57;;;3.20;;
72635;SDS011;60679;48.888;15.544;2022-11-04T04:07:45;7.95;;;2.47;;
72635;SDS011;60679;48.888;15.544;2022-11-04T04:10:17;3.80;;;1.70;;
72635;SDS011;60679;48.888;15.544;2022-11-04T04:13:18;8.40;;;3.42;;
72635;SDS011;60679;48.888;15.544;2022-11-04T04:18:22;9.30;;;3.42;;
72635;SDS011;60679;48.888;15.544;2022-11-04T04:20:55;4.82;;;2.80;;
72635;SDS011;60679;48.888;15.544;2022-11-04T04:23:26;8.27;;;3.67;;
72635;SDS011;60679;48.888;15.544;2022-11-04T04:26:12;7.30;;;2.83;;
72635;SDS011;60679;48.888;15.544;2022-11-04T04:28:59;7.68;;;3.33;;
72635;SDS011;60679;48.888;15.544;2022-11-04T04:31:27;9.23;;;2.85;;
72635;SDS011;60679;48.888;15.544;2022-11-04T04:34:12;4.15;;;1.80;;
72635;SDS011;60679;48.888;15.544;2022-11-04T04:36:40;6.17;;;2.13;;
72635;SDS011;60679;48.888;15.544;2022-11-04T04:39:16;4.65;;;2.03;;
72635;SDS011;60679;48.888;15.544;2022-11-04T04:42:02;3.95;;;1.45;;
72635;SDS011;60679;48.888;15.544;2022-11-04T04:44:47;4.10;;;1.90;;
72635;SDS011;60679;48.888;15.544;2022-11-04T04:47:33;3.47;;;1.50;;
72635;SDS011;60679;48.888;15.544;2022-11-04T04:50:08;5.38;;;2.03;;
72635;SDS011;60679;48.888;15.544;2022-11-04T04:52:37;4.72;;;2.05;;
72635;SDS011;60679;48.888;15.544;2022-11-04T04:55:06;4.93;;;2.75;;
72635;SDS011;60679;48.888;15.544;2022-11-04T04:57:32;5.38;;;2.13;;
72635;SDS011;60679;48.888;15.544;2022-11-04T04:59:57;6.73;;;2.90;;
72635;SDS011;60679;48.888;15.544;2022-11-04T05:02:23;6.57;;;2.97;;
72635;SDS011;60679;48.888;15.544;2022-11-04T05:04:49;9.63;;;3.58;;
72635;SDS011;60679;48.888;15.544;2022-11-04T05:07:14;4.93;;;2.10;;
72635;SDS011;60679;48.888;15.544;2022-11-04T05:09:39;7.93;;;2.90;;
72635;SDS011;60679;48.888;15.544;2022-11-04T05:12:05;5.13;;;1.83;;
72635;SDS011;60679;48.888;15.544;2022-11-04T05:14:31;8.77;;;2.40;;
72635;SDS011;60679;48.888;15.544;2022-11-04T05:16:56;7.00;;;2.63;;
72635;SDS011;60679;48.888;15.544;2022-11-04T05:19:22;5.53;;;2.07;;
72635;SDS011;60679;48.888;15.544;2022-11-04T05:21:47;4.50;;;2.47;;
72635;SDS011;60679;48.888;15.544;2022-11-04T05:24:12;6.60;;;2.13;;
72635;SDS011;60679;48.888;15.544;2022-11-04T05:26:38;7.72;;;4.32;;
72635;SDS011;60679;48.888;15.544;2022-11-04T05:29:03;6.57;;;3.90;;
72635;SDS011;60679;48.888;15.544;2022-11-04T05:31:29;5.70;;;3.03;;
72635;SDS011;60679;48.888;15.544;2022-11-04T05:33:54;5.00;;;2.27;;
72635;SDS011;60679;48.888;15.544;2022-11-04T05:36:21;5.25;;;2.80;;
72635;SDS011;60679;48.888;15.544;2022-11-04T05:38:50;4.85;;;2.25;;
72635;SDS011;60679;48.888;15.544;2022-11-04T05:41:16;4.38;;;2.30;;
72635;SDS011;60679;48.888;15.544;2022-11-04T05:43:52;4.70;;;2.23;;
72635;SDS011;60679;48.888;15.544;2022-11-04T05:46:18;3.53;;;1.73;;
72635;SDS011;60679;48.888;15.544;2022-11-04T05:48:43;5.47;;;2.83;;
72635;SDS011;60679;48.888;15.544;2022-11-04T05:51:11;4.18;;;2.10;;
72635;SDS011;60679;48.888;15.544;2022-11-04T05:53:38;4.63;;;2.00;;
72635;SDS011;60679;48.888;15.544;2022-11-04T05:56:04;5.30;;;3.07;;
72635;SDS011;60679;48.888;15.544;2022-11-04T05:58:29;6.28;;;1.52;;
72635;SDS011;60679;48.888;15.544;2022-11-04T06:01:09;8.60;;;2.53;;
72635;SDS011;60679;48.888;15.544;2022-11-04T06:03:35;5.10;;;2.22;;
72635;SDS011;60679;48.888;15.544;2022-11-04T06:06:01;5.37;;;1.97;;
72635;SDS011;60679;48.888;15.544;2022-11-04T06:08:26;5.33;;;2.10;;
72635;SDS011;60679;48.888;15.544;2022-11-04T06:10:51;4.87;;;2.60;;
72635;SDS011;60679;48.888;15.544;2022-11-04T06:13:17;6.47;;;3.03;;
72635;SDS011;60679;48.888;15.544;2022-11-04T06:15:42;5.50;;;2.70;;
72635;SDS011;60679;48.888;15.544;2022-11-04T06:18:07;6.87;;;2.67;;
72635;SDS011;60679;48.888;15.544;2022-11-04T06:20:33;5.65;;;2.33;;
72635;SDS011;60679;48.888;15.544;2022-11-04T06:22:58;4.47;;;2.07;;
72635;SDS011;60679;48.888;15.544;2022-11-04T06:25:24;4.87;;;2.57;;
72635;SDS011;60679;48.888;15.544;2022-11-04T06:27:49;4.10;;;2.00;;
72635;SDS011;60679;48.888;15.544;2022-11-04T06:30:14;5.70;;;3.63;;
72635;SDS011;60679;48.888;15.544;2022-11-04T06:32:39;6.07;;;2.60;;
72635;SDS011;60679;48.888;15.544;2022-11-04T06:35:05;5.23;;;2.77;;
72635;SDS011;60679;48.888;15.544;2022-11-04T06:37:32;6.35;;;3.35;;
72635;SDS011;60679;48.888;15.544;2022-11-04T06:39:58;5.00;;;2.28;;
72635;SDS011;60679;48.888;15.544;2022-11-04T06:42:24;4.07;;;1.73;;
72635;SDS011;60679;48.888;15.544;2022-11-04T06:44:50;6.05;;;2.25;;
72635;SDS011;60679;48.888;15.544;2022-11-04T06:47:16;5.07;;;2.47;;
72635;SDS011;60679;48.888;15.544;2022-11-04T06:49:42;5.40;;;2.03;;
72635;SDS011;60679;48.888;15.544;2022-11-04T06:52:07;5.13;;;3.40;;
72635;SDS011;60679;48.888;15.544;2022-11-04T06:54:32;3.60;;;1.47;;
72635;SDS011;60679;48.888;15.544;2022-11-04T06:56:58;7.13;;;2.92;;
72635;SDS011;60679;48.888;15.544;2022-11-04T06:59:24;4.80;;;2.50;;
72635;SDS011;60679;48.888;15.544;2022-11-04T07:01:49;5.07;;;2.80;;
72635;SDS011;60679;48.888;15.544;2022-11-04T07:04:15;6.63;;;2.70;;
72635;SDS011;60679;48.888;15.544;2022-11-04T07:06:42;4.47;;;1.88;;
72635;SDS011;60679;48.888;15.544;2022-11-04T07:09:08;5.13;;;1.87;;
72635;SDS011;60679;48.888;15.544;2022-11-04T07:11:35;3.33;;;1.73;;
72635;SDS011;60679;48.888;15.544;2022-11-04T07:14:01;6.70;;;2.07;;
72635;SDS011;60679;48.888;15.544;2022-11-04T07:16:26;4.72;;;2.20;;
72635;SDS011;60679;48.888;15.544;2022-11-04T07:18:55;3.40;;;1.37;;
72635;SDS011;60679;48.888;15.544;2022-11-04T07:21:20;5.55;;;2.92;;
72635;SDS011;60679;48.888;15.544;2022-11-04T07:23:46;5.43;;;2.10;;
72635;SDS011;60679;48.888;15.544;2022-11-04T07:26:12;7.80;;;3.47;;
72635;SDS011;60679;48.888;15.544;2022-11-04T07:28:38;5.80;;;2.93;;
72635;SDS011;60679;48.888;15.544;2022-11-04T07:31:04;4.18;;;1.75;;
72635;SDS011;60679;48.888;15.544;2022-11-04T07:33:31;5.65;;;3.20;;
72635;SDS011;60679;48.888;15.544;2022-11-04T07:35:58;4.45;;;2.30;;
72635;SDS011;60679;48.888;15.544;2022-11-04T07:38:29;9.87;;;2.40;;
72635;SDS011;60679;48.888;15.544;2022-11-04T07:40:55;7.32;;;2.40;;
72635;SDS011;60679;48.888;15.544;2022-11-04T07:43:22;6.18;;;2.70;;
72635;SDS011;60679;48.888;15.544;2022-11-04T07:46:00;5.77;;;2.27;;
72635;SDS011;60679;48.888;15.544;2022-11-04T07:48:27;3.47;;;1.52;;
72635;SDS011;60679;48.888;15.544;2022-11-04T07:50:56;5.33;;;2.30;;
72635;SDS011;60679;48.888;15.544;2022-11-04T07:53:24;13.63;;;4.40;;
72635;SDS011;60679;48.888;15.544;2022-11-04T07:55:50;8.60;;;4.28;;
72635;SDS011;60679;48.888;15.544;2022-11-04T07:58:16;4.33;;;1.87;;
72635;SDS011;60679;48.888;15.544;2022-11-04T08:00:43;4.82;;;1.83;;
72635;SDS011;60679;48.888;15.544;2022-11-04T08:03:08;4.20;;;2.13;;
72635;SDS011;60679;48.888;15.544;2022-11-04T08:05:33;4.10;;;2.00;;
72635;SDS011;60679;48.888;15.544;2022-11-04T08:07:59;2.90;;;1.00;;
72635;SDS011;60679;48.888;15.544;2022-11-04T08:10:25;4.57;;;2.80;;
72635;SDS011;60679;48.888;15.544;2022-11-04T08:12:50;5.60;;;2.77;;
72635;SDS011;60679;48.888;15.544;2022-11-04T08:15:16;5.10;;;1.73;;
72635;SDS011;60679;48.888;15.544;2022-11-04T08:17:42;6.22;;;2.92;;
72635;SDS011;60679;48.888;15.544;2022-11-04T08:20:07;6.13;;;3.20;;
72635;SDS011;60679;48.888;15.544;2022-11-04T08:22:33;3.85;;;1.75;;
72635;SDS011;60679;48.888;15.544;2022-11-04T08:24:59;6.17;;;1.90;;
72635;SDS011;60679;48.888;15.544;2022-11-04T08:27:24;4.53;;;2.10;;
72635;SDS011;60679;48.888;15.544;2022-11-04T08:29:50;6.20;;;2.83;;
72635;SDS011;60679;48.888;15.544;2022-11-04T08:32:15;3.63;;;1.43;;
72635;SDS011;60679;48.888;15.544;2022-11-04T08:34:41;5.70;;;1.60;;
72635;SDS011;60679;48.888;15.544;2022-11-04T08:37:06;3.53;;;1.83;;
72635;SDS011;60679;48.888;15.544;2022-11-04T08:39:32;3.73;;;1.57;;
72635;SDS011;60679;48.888;15.544;2022-11-04T08:41:57;2.93;;;1.10;;
72635;SDS011;60679;48.888;15.544;2022-11-04T08:44:22;5.17;;;2.40;;
72635;SDS011;60679;48.888;15.544;2022-11-04T08:46:48;6.67;;;2.37;;
72635;SDS011;60679;48.888;15.544;2022-11-04T08:49:14;4.18;;;1.63;;
72635;SDS011;60679;48.888;15.544;2022-11-04T08:51:41;4.30;;;2.03;;
72635;SDS011;60679;48.888;15.544;2022-11-04T08:54:09;3.50;;;1.50;;
72635;SDS011;60679;48.888;15.544;2022-11-04T08:56:35;4.35;;;1.58;;
72635;SDS011;60679;48.888;15.544;2022-11-04T08:59:03;3.97;;;1.73;;
72635;SDS011;60679;48.888;15.544;2022-11-04T09:01:30;3.60;;;1.47;;
72635;SDS011;60679;48.888;15.544;2022-11-04T09:03:59;4.18;;;1.75;;
72635;SDS011;60679;48.888;15.544;2022-11-04T09:06:27;6.00;;;2.60;;
72635;SDS011;60679;48.888;15.544;2022-11-04T09:08:54;4.85;;;1.58;;
72635;SDS011;60679;48.888;15.544;2022-11-04T09:11:26;8.18;;;3.58;;
72635;SDS011;60679;48.888;15.544;2022-11-04T09:13:51;4.33;;;1.63;;
72635;SDS011;60679;48.888;15.544;2022-11-04T09:16:17;3.53;;;2.00;;
72635;SDS011;60679;48.888;15.544;2022-11-04T09:18:43;4.82;;;2.90;;
72635;SDS011;60679;48.888;15.544;2022-11-04T09:21:09;3.73;;;1.30;;
72635;SDS011;60679;48.888;15.544;2022-11-04T09:23:35;7.00;;;1.42;;
72635;SDS011;60679;48.888;15.544;2022-11-04T09:26:05;4.70;;;2.00;;
72635;SDS011;60679;48.888;15.544;2022-11-04T09:28:33;4.23;;;1.13;;
72635;SDS011;60679;48.888;15.544;2022-11-04T09:30:58;5.32;;;2.53;;
72635;SDS011;60679;48.888;15.544;2022-11-04T09:33:24;4.67;;;2.40;;
72635;SDS011;60679;48.888;15.544;2022-11-04T09:35:55;5.03;;;2.13;;
72635;SDS011;60679;48.888;15.544;2022-11-04T09:38:22;4.20;;;1.88;;
72635;SDS011;60679;48.888;15.544;2022-11-04T09:40:48;4.43;;;2.03;;
72635;SDS011;60679;48.888;15.544;2022-11-04T09:46:07;4.72;;;2.17;;
72635;SDS011;60679;48.888;15.544;2022-11-04T09:48:46;3.90;;;1.60;;
72635;SDS011;60679;48.888;15.544;2022-11-04T09:51:15;6.68;;;1.25;;
72635;SDS011;60679;48.888;15.544;2022-11-04T09:53:44;6.10;;;2.28;;
72635;SDS011;60679;48.888;15.544;2022-11-04T09:56:22;8.23;;;2.53;;
72635;SDS011;60679;48.888;15.544;2022-11-04T09:59:08;4.03;;;1.48;;
72635;SDS011;60679;48.888;15.544;2022-11-04T10:01:44;4.80;;;2.00;;
72635;SDS011;60679;48.888;15.544;2022-11-04T10:12:00;3.63;;;1.67;;
72635;SDS011;60679;48.888;15.544;2022-11-04T10:23:05;3.70;;;1.40;;
72635;SDS011;60679;48.888;15.544;2022-11-04T10:25:36;3.95;;;1.17;;
72635;SDS011;60679;48.888;15.544;2022-11-04T10:28:10;3.38;;;1.10;;
72635;SDS011;60679;48.888;15.544;2022-11-04T10:30:40;2.70;;;0.65;;
72635;SDS011;60679;48.888;15.544;2022-11-04T10:35:55;3.40;;;1.30;;
72635;SDS011;60679;48.888;15.544;2022-11-04T10:40:53;2.67;;;0.90;;
72635;SDS011;60679;48.888;15.544;2022-11-04T10:48:50;3.25;;;1.25;;
72635;SDS011;60679;48.888;15.544;2022-11-04T10:51:18;2.50;;;0.60;;
72635;SDS011;60679;48.888;15.544;2022-11-04T10:53:46;3.13;;;1.13;;
72635;SDS011;60679;48.888;15.544;2022-11-04T10:58:55;2.42;;;0.73;;
72635;SDS011;60679;48.888;15.544;2022-11-04T11:01:48;2.20;;;0.60;;
72635;SDS011;60679;48.888;15.544;2022-11-04T11:04:31;2.45;;;0.50;;
72635;SDS011;60679;48.888;15.544;2022-11-04T11:06:59;2.70;;;0.55;;
72635;SDS011;60679;48.888;15.544;2022-11-04T11:09:28;3.78;;;1.40;;
72635;SDS011;60679;48.888;15.544;2022-11-04T11:16:53;2.42;;;0.88;;
72635;SDS011;60679;48.888;15.544;2022-11-04T11:19:20;2.78;;;0.98;;
72635;SDS011;60679;48.888;15.544;2022-11-04T11:21:48;2.75;;;0.75;;
72635;SDS011;60679;48.888;15.544;2022-11-04T11:24:18;6.18;;;1.10;;
72635;SDS011;60679;48.888;15.544;2022-11-04T11:26:54;2.40;;;0.60;;
72635;SDS011;60679;48.888;15.544;2022-11-04T11:29:40;2.50;;;0.75;;
72635;SDS011;60679;48.888;15.544;2022-11-04T11:32:26;2.35;;;0.57;;
72635;SDS011;60679;48.888;15.544;2022-11-04T11:34:56;2.60;;;0.77;;
72635;SDS011;60679;48.888;15.544;2022-11-04T11:37:25;4.40;;;1.17;;
72635;SDS011;60679;48.888;15.544;2022-11-04T11:39:55;2.60;;;0.73;;
72635;SDS011;60679;48.888;15.544;2022-11-04T11:42:23;1.85;;;0.30;;
72635;SDS011;60679;48.888;15.544;2022-11-04T11:44:51;2.80;;;0.77;;
72635;SDS011;60679;48.888;15.544;2022-11-04T11:47:19;2.42;;;0.60;;
72635;SDS011;60679;48.888;15.544;2022-11-04T11:52:38;2.15;;;0.50;;
72635;SDS011;60679;48.888;15.544;2022-11-04T11:55:24;2.15;;;0.60;;
72635;SDS011;60679;48.888;15.544;2022-11-04T12:00:37;2.28;;;0.50;;
72635;SDS011;60679;48.888;15.544;2022-11-04T12:05:51;2.33;;;0.52;;
72635;SDS011;60679;48.888;15.544;2022-11-04T12:11:24;2.00;;;0.40;;
72635;SDS011;60679;48.888;15.544;2022-11-04T12:13:55;2.05;;;0.40;;
72635;SDS011;60679;48.888;15.544;2022-11-04T12:21:57;3.03;;;0.80;;
72635;SDS011;60679;48.888;15.544;2022-11-04T12:30:10;2.77;;;0.70;;
72635;SDS011;60679;48.888;15.544;2022-11-04T12:32:47;2.20;;;0.47;;
72635;SDS011;60679;48.888;15.544;2022-11-04T12:46:36;1.83;;;0.30;;
72635;SDS011;60679;48.888;15.544;2022-11-04T13:00:12;1.95;;;0.30;;
72635;SDS011;60679;48.888;15.544;2022-11-04T13:02:44;2.20;;;0.57;;
72635;SDS011;60679;48.888;15.544;2022-11-04T13:10:38;2.13;;;0.40;;
72635;SDS011;60679;48.888;15.544;2022-11-04T13:13:17;2.40;;;0.50;;
72635;SDS011;60679;48.888;15.544;2022-11-04T13:15:50;2.20;;;0.40;;
72635;SDS011;60679;48.888;15.544;2022-11-04T13:18:19;2.03;;;0.40;;
72635;SDS011;60679;48.888;15.544;2022-11-04T13:20:51;1.80;;;0.38;;
72635;SDS011;60679;48.888;15.544;2022-11-04T13:23:26;1.80;;;0.30;;
72635;SDS011;60679;48.888;15.544;2022-11-04T13:25:56;2.60;;;0.60;;
72635;SDS011;60679;48.888;15.544;2022-11-04T13:28:23;1.85;;;0.30;;
72635;SDS011;60679;48.888;15.544;2022-11-04T13:34:00;1.80;;;0.30;;
72635;SDS011;60679;48.888;15.544;2022-11-04T13:36:29;2.50;;;0.70;;
72635;SDS011;60679;48.888;15.544;2022-11-04T13:44:36;2.15;;;0.45;;
72635;SDS011;60679;48.888;15.544;2022-11-04T13:47:11;3.17;;;1.15;;
72635;SDS011;60679;48.888;15.544;2022-11-04T13:49:47;2.78;;;0.80;;
72635;SDS011;60679;48.888;15.544;2022-11-04T13:52:15;2.50;;;0.60;;
72635;SDS011;60679;48.888;15.544;2022-11-04T13:57:14;2.15;;;0.40;;
72635;SDS011;60679;48.888;15.544;2022-11-04T13:59:40;2.00;;;0.40;;
72635;SDS011;60679;48.888;15.544;2022-11-04T14:04:40;1.90;;;0.30;;
72635;SDS011;60679;48.888;15.544;2022-11-04T14:07:07;2.00;;;0.40;;
72635;SDS011;60679;48.888;15.544;2022-11-04T14:14:35;2.03;;;0.40;;
72635;SDS011;60679;48.888;15.544;2022-11-04T14:17:02;1.90;;;0.40;;
72635;SDS011;60679;48.888;15.544;2022-11-04T14:28:02;2.30;;;0.60;;
72635;SDS011;60679;48.888;15.544;2022-11-04T14:33:22;1.98;;;0.40;;
72635;SDS011;60679;48.888;15.544;2022-11-04T14:35:52;1.80;;;0.30;;
72635;SDS011;60679;48.888;15.544;2022-11-04T14:38:26;3.15;;;1.30;;
72635;SDS011;60679;48.888;15.544;2022-11-04T14:41:16;2.10;;;0.40;;
72635;SDS011;60679;48.888;15.544;2022-11-04T14:43:46;7.72;;;3.53;;
72635;SDS011;60679;48.888;15.544;2022-11-04T14:46:23;1.98;;;0.40;;
72635;SDS011;60679;48.888;15.544;2022-11-04T14:48:53;2.10;;;0.47;;
72635;SDS011;60679;48.888;15.544;2022-11-04T14:51:23;2.22;;;0.40;;
72635;SDS011;60679;48.888;15.544;2022-11-04T14:53:53;2.05;;;0.43;;
72635;SDS011;60679;48.888;15.544;2022-11-04T14:56:26;2.50;;;0.70;;
72635;SDS011;60679;48.888;15.544;2022-11-04T14:58:55;2.00;;;0.43;;
72635;SDS011;60679;48.888;15.544;2022-11-04T15:01:35;2.25;;;0.55;;
72635;SDS011;60679;48.888;15.544;2022-11-04T15:04:04;1.70;;;0.30;;
72635;SDS011;60679;48.888;15.544;2022-11-04T15:06:42;2.30;;;0.50;;
72635;SDS011;60679;48.888;15.544;2022-11-04T15:09:23;1.73;;;0.30;;
72635;SDS011;60679;48.888;15.544;2022-11-04T15:11:55;1.80;;;0.30;;
72635;SDS011;60679;48.888;15.544;2022-11-04T15:14:44;2.08;;;0.40;;
72635;SDS011;60679;48.888;15.544;2022-11-04T15:17:10;1.90;;;0.40;;
72635;SDS011;60679;48.888;15.544;2022-11-04T15:19:43;3.67;;;1.25;;
72635;SDS011;60679;48.888;15.544;2022-11-04T15:22:14;1.88;;;0.30;;
72635;SDS011;60679;48.888;15.544;2022-11-04T15:24:40;2.10;;;0.40;;
72635;SDS011;60679;48.888;15.544;2022-11-04T15:27:09;2.00;;;0.40;;
72635;SDS011;60679;48.888;15.544;2022-11-04T15:29:39;2.70;;;0.85;;
72635;SDS011;60679;48.888;15.544;2022-11-04T15:32:04;2.00;;;0.40;;
72635;SDS011;60679;48.888;15.544;2022-11-04T15:34:30;2.13;;;0.50;;
72635;SDS011;60679;48.888;15.544;2022-11-04T15:37:01;2.28;;;0.55;;
72635;SDS011;60679;48.888;15.544;2022-11-04T15:39:30;1.88;;;0.40;;
72635;SDS011;60679;48.888;15.544;2022-11-04T15:41:59;2.30;;;0.60;;
72635;SDS011;60679;48.888;15.544;2022-11-04T15:44:46;2.07;;;0.40;;
72635;SDS011;60679;48.888;15.544;2022-11-04T15:49:42;2.08;;;0.43;;
72635;SDS011;60679;48.888;15.544;2022-11-04T15:52:13;1.90;;;0.30;;
72635;SDS011;60679;48.888;15.544;2022-11-04T15:54:45;1.90;;;0.40;;
72635;SDS011;60679;48.888;15.544;2022-11-04T15:57:14;1.83;;;0.33;;
72635;SDS011;60679;48.888;15.544;2022-11-04T16:00:03;1.77;;;0.30;;
72635;SDS011;60679;48.888;15.544;2022-11-04T16:02:54;2.25;;;0.50;;
72635;SDS011;60679;48.888;15.544;2022-11-04T16:07:52;2.08;;;0.50;;
72635;SDS011;60679;48.888;15.544;2022-11-04T16:12:57;2.00;;;0.40;;
72635;SDS011;60679;48.888;15.544;2022-11-04T16:17:57;1.80;;;0.38;;
72635;SDS011;60679;48.888;15.544;2022-11-04T16:20:23;1.93;;;0.33;;
72635;SDS011;60679;48.888;15.544;2022-11-04T16:22:53;2.10;;;0.40;;
72635;SDS011;60679;48.888;15.544;2022-11-04T16:25:22;2.08;;;0.50;;
72635;SDS011;60679;48.888;15.544;2022-11-04T16:27:49;2.10;;;0.50;;
72635;SDS011;60679;48.888;15.544;2022-11-04T16:30:18;2.27;;;0.53;;
72635;SDS011;60679;48.888;15.544;2022-11-04T16:35:17;1.90;;;0.30;;
72635;SDS011;60679;48.888;15.544;2022-11-04T16:37:48;1.80;;;0.30;;
72635;SDS011;60679;48.888;15.544;2022-11-04T16:40:14;2.22;;;0.70;;
72635;SDS011;60679;48.888;15.544;2022-11-04T16:42:41;1.90;;;0.40;;
72635;SDS011;60679;48.888;15.544;2022-11-04T16:45:09;2.03;;;0.40;;
72635;SDS011;60679;48.888;15.544;2022-11-04T16:47:44;1.95;;;0.30;;
72635;SDS011;60679;48.888;15.544;2022-11-04T16:50:13;1.90;;;0.40;;
72635;SDS011;60679;48.888;15.544;2022-11-04T16:52:40;1.70;;;0.30;;
72635;SDS011;60679;48.888;15.544;2022-11-04T16:55:06;1.98;;;0.40;;
72635;SDS011;60679;48.888;15.544;2022-11-04T16:57:32;2.40;;;0.82;;
72635;SDS011;60679;48.888;15.544;2022-11-04T16:59:57;2.17;;;0.47;;
72635;SDS011;60679;48.888;15.544;2022-11-04T17:02:27;1.80;;;0.40;;
72635;SDS011;60679;48.888;15.544;2022-11-04T17:04:59;1.80;;;0.35;;
72635;SDS011;60679;48.888;15.544;2022-11-04T17:07:24;3.83;;;0.50;;
72635;SDS011;60679;48.888;15.544;2022-11-04T17:09:49;2.10;;;0.60;;
72635;SDS011;60679;48.888;15.544;2022-11-04T17:12:15;2.27;;;0.50;;
72635;SDS011;60679;48.888;15.544;2022-11-04T17:14:40;2.20;;;0.40;;
72635;SDS011;60679;48.888;15.544;2022-11-04T17:17:06;2.10;;;0.40;;
72635;SDS011;60679;48.888;15.544;2022-11-04T17:19:32;1.85;;;0.30;;
72635;SDS011;60679;48.888;15.544;2022-11-04T17:21:58;2.00;;;0.40;;
72635;SDS011;60679;48.888;15.544;2022-11-04T17:24:26;2.05;;;0.50;;
72635;SDS011;60679;48.888;15.544;2022-11-04T17:26:52;1.70;;;0.30;;
72635;SDS011;60679;48.888;15.544;2022-11-04T17:29:18;2.22;;;0.50;;
72635;SDS011;60679;48.888;15.544;2022-11-04T17:31:43;1.83;;;0.30;;
72635;SDS011;60679;48.888;15.544;2022-11-04T17:34:08;2.10;;;0.50;;
72635;SDS011;60679;48.888;15.544;2022-11-04T17:36:34;2.20;;;0.60;;
72635;SDS011;60679;48.888;15.544;2022-11-04T17:39:00;2.00;;;0.40;;